sensor_id;sensor_type;location;lat;lon;timestamp;pressure;altitude;pressure_sealevel;temperature;humidity
6194;BME280;3130;41.564;23.280;2023-06-22T00:01:33;99052.63;;;22.71;75.45
6194;BME280;3130;41.564;23.280;2023-06-22T00:04:00;99068.31;;;22.63;75.54
6194;BME280;3130;41.564;23.280;2023-06-22T00:06:28;99076.16;;;22.63;75.53
6194;BME280;3130;41.564;23.280;2023-06-22T00:08:56;99070.59;;;22.58;75.59
6194;BME280;3130;41.564;23.280;2023-06-22T00:11:23;99067.34;;;22.56;75.68
6194;BME280;3130;41.564;23.280;2023-06-22T00:13:50;99073.88;;;22.60;75.74
6194;BME280;3130;41.564;23.280;2023-06-22T00:16:17;99075.84;;;22.66;75.60
6194;BME280;3130;41.564;23.280;2023-06-22T00:18:44;99083.69;;;22.66;75.38
6194;BME280;3130;41.564;23.280;2023-06-22T00:21:12;99088.91;;;22.66;75.53
6194;BME280;3130;41.564;23.280;2023-06-22T00:23:39;99088.13;;;22.66;75.53
6194;BME280;3130;41.564;23.280;2023-06-22T00:26:08;99089.56;;;22.68;75.23
6194;BME280;3130;41.564;23.280;2023-06-22T00:28:35;99093.31;;;22.58;75.64
6194;BME280;3130;41.564;23.280;2023-06-22T00:31:02;99067.00;;;22.36;76.31
6194;BME280;3130;41.564;23.280;2023-06-22T00:33:29;99081.72;;;22.37;76.48
6194;BME280;3130;41.564;23.280;2023-06-22T00:35:57;99101.31;;;22.48;76.68
6194;BME280;3130;41.564;23.280;2023-06-22T00:38:24;99067.50;;;22.39;76.56
6194;BME280;3130;41.564;23.280;2023-06-22T00:40:51;99065.53;;;22.41;76.39
6194;BME280;3130;41.564;23.280;2023-06-22T00:43:19;99088.28;;;22.56;76.10
6194;BME280;3130;41.564;23.280;2023-06-22T00:45:46;99077.63;;;22.50;75.93
6194;BME280;3130;41.564;23.280;2023-06-22T00:48:13;99085.31;;;22.59;75.83
6194;BME280;3130;41.564;23.280;2023-06-22T00:50:41;99087.75;;;22.53;76.30
6194;BME280;3130;41.564;23.280;2023-06-22T00:53:08;99093.94;;;22.36;76.79
6194;BME280;3130;41.564;23.280;2023-06-22T00:55:38;99082.28;;;22.23;77.46
6194;BME280;3130;41.564;23.280;2023-06-22T00:58:09;99077.53;;;22.10;77.78
6194;BME280;3130;41.564;23.280;2023-06-22T01:00:38;99094.22;;;22.25;77.79
6194;BME280;3130;41.564;23.280;2023-06-22T01:03:06;99085.78;;;22.39;76.97
6194;BME280;3130;41.564;23.280;2023-06-22T01:05:35;99033.97;;;22.19;76.41
6194;BME280;3130;41.564;23.280;2023-06-22T01:08:12;99088.06;;;22.42;76.56
6194;BME280;3130;41.564;23.280;2023-06-22T01:10:46;99070.72;;;22.25;76.36
6194;BME280;3130;41.564;23.280;2023-06-22T01:13:25;99084.00;;;22.40;75.69
6194;BME280;3130;41.564;23.280;2023-06-22T01:16:02;99055.84;;;22.18;76.18
6194;BME280;3130;41.564;23.280;2023-06-22T01:18:31;99083.94;;;22.32;76.57
6194;BME280;3130;41.564;23.280;2023-06-22T01:21:02;99062.31;;;22.06;77.29
6194;BME280;3130;41.564;23.280;2023-06-22T01:23:48;99080.66;;;22.22;76.84
6194;BME280;3130;41.564;23.280;2023-06-22T01:26:20;99051.38;;;21.94;77.21
6194;BME280;3130;41.564;23.280;2023-06-22T01:28:52;99069.66;;;22.02;77.50
6194;BME280;3130;41.564;23.280;2023-06-22T01:31:21;99077.53;;;22.10;77.17
6194;BME280;3130;41.564;23.280;2023-06-22T01:33:52;99081.44;;;22.14;77.03
6194;BME280;3130;41.564;23.280;2023-06-22T01:36:21;99076.91;;;22.24;76.45
6194;BME280;3130;41.564;23.280;2023-06-22T01:38:49;99083.66;;;22.35;76.14
6194;BME280;3130;41.564;23.280;2023-06-22T01:41:17;99084.56;;;22.26;76.08
6194;BME280;3130;41.564;23.280;2023-06-22T01:43:45;99049.41;;;21.88;76.63
6194;BME280;3130;41.564;23.280;2023-06-22T01:46:14;99089.28;;;22.14;76.91
6194;BME280;3130;41.564;23.280;2023-06-22T01:48:41;99054.75;;;21.79;77.19
6194;BME280;3130;41.564;23.280;2023-06-22T01:51:08;99088.25;;;21.91;77.59
6194;BME280;3130;41.564;23.280;2023-06-22T01:53:36;99076.00;;;21.84;77.83
6194;BME280;3130;41.564;23.280;2023-06-22T01:56:03;99087.09;;;21.86;77.86
6194;BME280;3130;41.564;23.280;2023-06-22T01:58:31;99078.59;;;21.84;78.11
6194;BME280;3130;41.564;23.280;2023-06-22T02:01:03;99088.22;;;21.83;78.09
6194;BME280;3130;41.564;23.280;2023-06-22T02:03:38;99070.22;;;21.72;78.07
6194;BME280;3130;41.564;23.280;2023-06-22T02:06:11;99090.94;;;21.74;78.43
6194;BME280;3130;41.564;23.280;2023-06-22T02:08:47;99091.38;;;21.61;79.14
6194;BME280;3130;41.564;23.280;2023-06-22T02:11:16;99050.59;;;21.27;79.73
6194;BME280;3130;41.564;23.280;2023-06-22T02:13:46;99094.72;;;21.46;80.04
6194;BME280;3130;41.564;23.280;2023-06-22T02:16:14;99096.31;;;21.39;80.55
6194;BME280;3130;41.564;23.280;2023-06-22T02:18:47;99106.25;;;21.35;80.76
6194;BME280;3130;41.564;23.280;2023-06-22T02:21:16;99080.72;;;21.22;80.89
6194;BME280;3130;41.564;23.280;2023-06-22T02:23:43;99089.81;;;21.18;81.65
6194;BME280;3130;41.564;23.280;2023-06-22T02:26:10;99110.97;;;21.40;80.84
6194;BME280;3130;41.564;23.280;2023-06-22T02:28:37;99112.63;;;21.41;81.13
6194;BME280;3130;41.564;23.280;2023-06-22T02:31:04;99119.59;;;21.58;80.80
6194;BME280;3130;41.564;23.280;2023-06-22T02:33:31;99115.44;;;21.47;80.77
6194;BME280;3130;41.564;23.280;2023-06-22T02:36:00;99114.06;;;21.35;81.44
6194;BME280;3130;41.564;23.280;2023-06-22T02:38:30;99121.31;;;21.24;81.83
6194;BME280;3130;41.564;23.280;2023-06-22T02:41:00;99123.72;;;21.18;82.40
6194;BME280;3130;41.564;23.280;2023-06-22T02:43:27;99128.94;;;21.18;82.68
6194;BME280;3130;41.564;23.280;2023-06-22T02:45:54;99067.41;;;20.82;82.47
6194;BME280;3130;41.564;23.280;2023-06-22T02:48:22;99136.72;;;21.35;81.87
6194;BME280;3130;41.564;23.280;2023-06-22T02:50:49;99136.09;;;21.16;82.84
6194;BME280;3130;41.564;23.280;2023-06-22T02:53:17;99116.38;;;20.96;83.43
6194;BME280;3130;41.564;23.280;2023-06-22T02:55:45;99141.78;;;20.94;84.01
6194;BME280;3130;41.564;23.280;2023-06-22T02:58:12;99141.13;;;20.92;84.28
6194;BME280;3130;41.564;23.280;2023-06-22T03:00:39;99125.84;;;20.97;83.86
6194;BME280;3130;41.564;23.280;2023-06-22T03:03:06;99156.19;;;20.98;84.28
6194;BME280;3130;41.564;23.280;2023-06-22T03:05:33;99153.44;;;20.99;84.13
6194;BME280;3130;41.564;23.280;2023-06-22T03:08:00;99025.44;;;20.15;84.81
6194;BME280;3130;41.564;23.280;2023-06-22T03:10:29;99158.88;;;20.88;85.25
6194;BME280;3130;41.564;23.280;2023-06-22T03:12:56;99149.03;;;20.82;85.36
6194;BME280;3130;41.564;23.280;2023-06-22T03:15:23;99145.06;;;20.78;85.30
6194;BME280;3130;41.564;23.280;2023-06-22T03:17:51;99115.81;;;20.67;85.11
6194;BME280;3130;41.564;23.280;2023-06-22T03:20:18;99148.59;;;20.87;85.25
6194;BME280;3130;41.564;23.280;2023-06-22T03:22:45;99155.13;;;20.91;85.33
6194;BME280;3130;41.564;23.280;2023-06-22T03:25:12;99160.81;;;20.86;85.40
6194;BME280;3130;41.564;23.280;2023-06-22T03:27:41;99125.09;;;20.69;85.59
6194;BME280;3130;41.564;23.280;2023-06-22T03:30:10;99153.28;;;20.83;85.78
6194;BME280;3130;41.564;23.280;2023-06-22T03:32:38;99160.03;;;20.76;86.11
6194;BME280;3130;41.564;23.280;2023-06-22T03:35:06;99157.28;;;20.60;86.87
6194;BME280;3130;41.564;23.280;2023-06-22T03:37:33;99157.63;;;20.65;86.79
6194;BME280;3130;41.564;23.280;2023-06-22T03:40:00;99149.44;;;20.78;86.63
6194;BME280;3130;41.564;23.280;2023-06-22T03:42:28;99152.13;;;20.68;86.95
6194;BME280;3130;41.564;23.280;2023-06-22T03:44:56;99148.78;;;20.58;87.53
6194;BME280;3130;41.564;23.280;2023-06-22T03:47:23;99125.53;;;20.47;87.75
6194;BME280;3130;41.564;23.280;2023-06-22T03:49:50;99141.94;;;20.57;88.11
6194;BME280;3130;41.564;23.280;2023-06-22T03:52:20;99147.22;;;20.65;87.93
6194;BME280;3130;41.564;23.280;2023-06-22T03:54:48;99145.06;;;20.61;88.06
6194;BME280;3130;41.564;23.280;2023-06-22T03:57:15;99156.09;;;20.72;88.15
6194;BME280;3130;41.564;23.280;2023-06-22T03:59:42;99138.75;;;20.63;87.97
6194;BME280;3130;41.564;23.280;2023-06-22T04:02:11;99126.13;;;20.59;87.65
6194;BME280;3130;41.564;23.280;2023-06-22T04:04:38;99167.88;;;20.94;87.12
6194;BME280;3130;41.564;23.280;2023-06-22T04:07:05;99166.34;;;21.09;86.15
6194;BME280;3130;41.564;23.280;2023-06-22T04:09:33;99176.41;;;21.21;85.80
6194;BME280;3130;41.564;23.280;2023-06-22T04:12:01;99173.03;;;21.29;85.07
6194;BME280;3130;41.564;23.280;2023-06-22T04:14:28;99180.47;;;21.41;84.49
6194;BME280;3130;41.564;23.280;2023-06-22T04:16:55;99163.47;;;21.37;83.60
6194;BME280;3130;41.564;23.280;2023-06-22T04:19:23;99129.63;;;21.20;82.48
6194;BME280;3130;41.564;23.280;2023-06-22T04:21:50;99177.75;;;21.68;81.32
6194;BME280;3130;41.564;23.280;2023-06-22T04:24:17;99180.09;;;21.79;80.85
6194;BME280;3130;41.564;23.280;2023-06-22T04:26:44;99178.16;;;21.81;80.55
6194;BME280;3130;41.564;23.280;2023-06-22T04:29:13;99181.31;;;21.92;80.26
6194;BME280;3130;41.564;23.280;2023-06-22T04:31:40;99189.69;;;22.04;79.52
6194;BME280;3130;41.564;23.280;2023-06-22T04:34:07;99192.75;;;21.99;80.41
6194;BME280;3130;41.564;23.280;2023-06-22T04:36:37;99196.88;;;22.02;81.19
6194;BME280;3130;41.564;23.280;2023-06-22T04:39:06;99195.41;;;22.07;81.00
6194;BME280;3130;41.564;23.280;2023-06-22T04:41:35;99185.09;;;22.06;80.67
6194;BME280;3130;41.564;23.280;2023-06-22T04:44:11;99197.59;;;22.28;78.38
6194;BME280;3130;41.564;23.280;2023-06-22T04:46:39;99209.78;;;22.44;75.25
6194;BME280;3130;41.564;23.280;2023-06-22T04:49:07;99185.63;;;22.58;74.08
6194;BME280;3130;41.564;23.280;2023-06-22T04:51:41;99197.28;;;22.88;73.49
6194;BME280;3130;41.564;23.280;2023-06-22T04:54:09;99199.91;;;23.04;72.25
6194;BME280;3130;41.564;23.280;2023-06-22T04:56:36;99168.38;;;23.05;70.78
6194;BME280;3130;41.564;23.280;2023-06-22T04:59:07;99173.31;;;23.16;69.08
6194;BME280;3130;41.564;23.280;2023-06-22T05:01:38;99181.63;;;23.43;68.33
6194;BME280;3130;41.564;23.280;2023-06-22T05:04:05;99201.75;;;23.59;67.42
6194;BME280;3130;41.564;23.280;2023-06-22T05:06:33;99198.28;;;23.66;67.38
6194;BME280;3130;41.564;23.280;2023-06-22T05:09:01;99204.00;;;23.70;66.66
6194;BME280;3130;41.564;23.280;2023-06-22T05:11:30;99187.63;;;23.76;66.97
6194;BME280;3130;41.564;23.280;2023-06-22T05:13:57;99194.50;;;23.85;66.26
6194;BME280;3130;41.564;23.280;2023-06-22T05:16:25;99130.09;;;23.44;65.51
6194;BME280;3130;41.564;23.280;2023-06-22T05:18:52;99208.56;;;23.92;65.93
6194;BME280;3130;41.564;23.280;2023-06-22T05:21:25;99144.78;;;23.53;64.33
6194;BME280;3130;41.564;23.280;2023-06-22T05:23:53;99210.66;;;24.04;64.25
6194;BME280;3130;41.564;23.280;2023-06-22T05:26:24;99215.72;;;24.14;64.08
6194;BME280;3130;41.564;23.280;2023-06-22T05:28:51;99216.31;;;24.24;64.37
6194;BME280;3130;41.564;23.280;2023-06-22T05:31:19;99218.41;;;24.36;64.37
6194;BME280;3130;41.564;23.280;2023-06-22T05:33:47;99217.34;;;24.45;64.49
6194;BME280;3130;41.564;23.280;2023-06-22T05:36:15;99218.81;;;24.55;63.16
6194;BME280;3130;41.564;23.280;2023-06-22T05:38:42;99169.09;;;24.32;61.83
6194;BME280;3130;41.564;23.280;2023-06-22T05:41:09;99153.38;;;24.32;61.41
6194;BME280;3130;41.564;23.280;2023-06-22T05:43:38;99212.00;;;24.77;61.05
6194;BME280;3130;41.564;23.280;2023-06-22T05:46:06;99088.91;;;24.15;61.35
6194;BME280;3130;41.564;23.280;2023-06-22T05:48:33;99085.53;;;24.29;61.33
6194;BME280;3130;41.564;23.280;2023-06-22T05:51:01;99146.41;;;24.77;61.35
6194;BME280;3130;41.564;23.280;2023-06-22T05:53:28;99142.59;;;24.79;60.56
6194;BME280;3130;41.564;23.280;2023-06-22T05:55:55;99203.69;;;25.33;60.45
6194;BME280;3130;41.564;23.280;2023-06-22T05:58:22;99172.56;;;25.30;59.75
6194;BME280;3130;41.564;23.280;2023-06-22T06:00:51;99143.09;;;25.20;59.23
6194;BME280;3130;41.564;23.280;2023-06-22T06:03:18;99188.28;;;25.52;59.81
6194;BME280;3130;41.564;23.280;2023-06-22T06:05:45;99105.13;;;25.08;60.54
6194;BME280;3130;41.564;23.280;2023-06-22T06:08:12;99202.13;;;25.75;60.46
6194;BME280;3130;41.564;23.280;2023-06-22T06:10:39;99206.25;;;25.92;57.71
6194;BME280;3130;41.564;23.280;2023-06-22T06:13:07;99199.09;;;26.00;56.79
6194;BME280;3130;41.564;23.280;2023-06-22T06:15:34;99208.63;;;26.16;56.21
6194;BME280;3130;41.564;23.280;2023-06-22T06:18:03;99199.00;;;26.23;55.07
6194;BME280;3130;41.564;23.280;2023-06-22T06:20:32;99210.63;;;26.43;54.67
6194;BME280;3130;41.564;23.280;2023-06-22T06:22:59;99198.28;;;26.43;54.38
6194;BME280;3130;41.564;23.280;2023-06-22T06:25:27;99211.13;;;26.67;54.58
6194;BME280;3130;41.564;23.280;2023-06-22T06:27:54;99176.13;;;26.52;54.54
6194;BME280;3130;41.564;23.280;2023-06-22T06:30:23;99121.34;;;26.27;54.05
6194;BME280;3130;41.564;23.280;2023-06-22T06:32:50;99225.72;;;27.05;53.90
6194;BME280;3130;41.564;23.280;2023-06-22T06:35:19;99214.78;;;27.08;53.95
6194;BME280;3130;41.564;23.280;2023-06-22T06:37:48;99223.47;;;27.23;54.02
6194;BME280;3130;41.564;23.280;2023-06-22T06:40:17;99168.50;;;26.99;54.45
6194;BME280;3130;41.564;23.280;2023-06-22T06:42:45;99169.69;;;27.17;53.96
6194;BME280;3130;41.564;23.280;2023-06-22T06:45:14;99221.31;;;27.60;53.63
6194;BME280;3130;41.564;23.280;2023-06-22T06:47:42;99205.00;;;27.71;52.45
6194;BME280;3130;41.564;23.280;2023-06-22T06:50:10;99216.06;;;27.87;50.61
6194;BME280;3130;41.564;23.280;2023-06-22T06:52:39;99211.84;;;27.93;49.41
6194;BME280;3130;41.564;23.280;2023-06-22T06:55:08;99163.69;;;27.51;48.98
6194;BME280;3130;41.564;23.280;2023-06-22T06:57:37;99173.00;;;27.74;48.62
6194;BME280;3130;41.564;23.280;2023-06-22T07:00:06;99202.22;;;28.13;49.03
6194;BME280;3130;41.564;23.280;2023-06-22T07:02:38;99202.25;;;28.19;48.42
6194;BME280;3130;41.564;23.280;2023-06-22T07:05:06;99129.94;;;28.01;48.12
6194;BME280;3130;41.564;23.280;2023-06-22T07:07:34;99191.88;;;28.52;46.80
6194;BME280;3130;41.564;23.280;2023-06-22T07:10:04;99198.59;;;28.73;46.02
6194;BME280;3130;41.564;23.280;2023-06-22T07:12:31;99162.03;;;28.64;45.76
6194;BME280;3130;41.564;23.280;2023-06-22T07:15:02;99167.19;;;28.85;45.04
6194;BME280;3130;41.564;23.280;2023-06-22T07:17:29;99127.91;;;28.63;44.69
6194;BME280;3130;41.564;23.280;2023-06-22T07:19:57;99200.16;;;29.21;44.78
6194;BME280;3130;41.564;23.280;2023-06-22T07:22:24;99201.38;;;29.25;44.72
6194;BME280;3130;41.564;23.280;2023-06-22T07:24:51;99197.28;;;29.36;44.67
6194;BME280;3130;41.564;23.280;2023-06-22T07:27:19;99196.31;;;29.56;43.75
6194;BME280;3130;41.564;23.280;2023-06-22T07:29:46;99130.41;;;29.35;42.84
6194;BME280;3130;41.564;23.280;2023-06-22T07:32:14;99204.03;;;29.58;43.52
6194;BME280;3130;41.564;23.280;2023-06-22T07:34:41;99190.44;;;29.48;44.18
6194;BME280;3130;41.564;23.280;2023-06-22T07:37:09;99206.41;;;29.91;42.52
6194;BME280;3130;41.564;23.280;2023-06-22T07:39:36;99205.59;;;30.10;42.05
6194;BME280;3130;41.564;23.280;2023-06-22T07:42:04;99172.19;;;30.16;42.13
6194;BME280;3130;41.564;23.280;2023-06-22T07:44:32;99206.88;;;30.52;41.40
6194;BME280;3130;41.564;23.280;2023-06-22T07:46:59;99188.06;;;30.66;40.66
6194;BME280;3130;41.564;23.280;2023-06-22T07:49:28;99205.16;;;31.01;39.81
6194;BME280;3130;41.564;23.280;2023-06-22T07:51:56;99203.06;;;31.65;38.96
6194;BME280;3130;41.564;23.280;2023-06-22T07:54:23;99152.16;;;33.50;35.28
6194;BME280;3130;41.564;23.280;2023-06-22T07:56:50;99167.41;;;36.53;30.47
6194;BME280;3130;41.564;23.280;2023-06-22T07:59:19;99200.56;;;38.85;26.48
6194;BME280;3130;41.564;23.280;2023-06-22T08:01:47;99167.56;;;40.43;24.62
6194;BME280;3130;41.564;23.280;2023-06-22T08:04:15;99208.75;;;41.30;23.43
6194;BME280;3130;41.564;23.280;2023-06-22T08:06:42;99211.63;;;39.73;24.71
6194;BME280;3130;41.564;23.280;2023-06-22T08:09:10;99196.75;;;38.00;26.52
6194;BME280;3130;41.564;23.280;2023-06-22T08:11:37;99196.75;;;36.75;28.60
6194;BME280;3130;41.564;23.280;2023-06-22T08:14:04;99196.63;;;35.63;30.54
6194;BME280;3130;41.564;23.280;2023-06-22T08:16:31;99170.19;;;34.84;31.54
6194;BME280;3130;41.564;23.280;2023-06-22T08:19:00;99185.50;;;34.49;32.08
6194;BME280;3130;41.564;23.280;2023-06-22T08:21:27;99178.34;;;33.76;32.87
6194;BME280;3130;41.564;23.280;2023-06-22T08:23:54;99177.66;;;33.46;33.25
6194;BME280;3130;41.564;23.280;2023-06-22T08:26:21;99187.34;;;33.29;33.83
6194;BME280;3130;41.564;23.280;2023-06-22T08:28:49;99184.53;;;33.13;34.12
6194;BME280;3130;41.564;23.280;2023-06-22T08:31:16;99179.25;;;32.95;35.69
6194;BME280;3130;41.564;23.280;2023-06-22T08:33:43;99174.00;;;32.77;35.27
6194;BME280;3130;41.564;23.280;2023-06-22T08:36:13;99148.06;;;32.61;35.60
6194;BME280;3130;41.564;23.280;2023-06-22T08:38:41;99162.44;;;32.72;35.88
6194;BME280;3130;41.564;23.280;2023-06-22T08:41:08;99165.91;;;32.72;36.14
6194;BME280;3130;41.564;23.280;2023-06-22T08:43:35;99157.06;;;32.60;35.52
6194;BME280;3130;41.564;23.280;2023-06-22T08:46:03;99145.59;;;32.60;35.61
6194;BME280;3130;41.564;23.280;2023-06-22T08:48:31;99162.16;;;32.62;35.35
6194;BME280;3130;41.564;23.280;2023-06-22T08:50:58;99098.84;;;32.29;34.76
6194;BME280;3130;41.564;23.280;2023-06-22T08:53:26;99152.41;;;32.74;35.00
6194;BME280;3130;41.564;23.280;2023-06-22T08:55:53;99141.53;;;32.75;35.59
6194;BME280;3130;41.564;23.280;2023-06-22T08:58:21;99149.06;;;32.78;35.26
6194;BME280;3130;41.564;23.280;2023-06-22T09:00:49;99145.81;;;32.76;35.60
6194;BME280;3130;41.564;23.280;2023-06-22T09:03:17;99127.53;;;32.68;34.98
6194;BME280;3130;41.564;23.280;2023-06-22T09:05:46;99145.38;;;32.79;34.79
6194;BME280;3130;41.564;23.280;2023-06-22T09:08:13;99139.69;;;32.76;34.25
6194;BME280;3130;41.564;23.280;2023-06-22T09:10:41;99138.19;;;32.80;34.40
6194;BME280;3130;41.564;23.280;2023-06-22T09:13:08;99137.75;;;32.94;34.39
6194;BME280;3130;41.564;23.280;2023-06-22T09:15:36;99144.84;;;33.11;33.60
6194;BME280;3130;41.564;23.280;2023-06-22T09:18:03;99135.69;;;32.96;33.75
6194;BME280;3130;41.564;23.280;2023-06-22T09:20:30;99134.28;;;32.82;34.37
6194;BME280;3130;41.564;23.280;2023-06-22T09:22:57;99139.00;;;32.80;34.61
6194;BME280;3130;41.564;23.280;2023-06-22T09:25:24;99137.59;;;32.78;34.32
6194;BME280;3130;41.564;23.280;2023-06-22T09:27:53;99130.47;;;32.90;33.84
6194;BME280;3130;41.564;23.280;2023-06-22T09:30:20;99121.72;;;33.00;33.55
6194;BME280;3130;41.564;23.280;2023-06-22T09:32:47;99134.59;;;33.26;33.22
6194;BME280;3130;41.564;23.280;2023-06-22T11:25:40;99032.53;;;35.11;28.77
6194;BME280;3130;41.564;23.280;2023-06-22T11:28:08;99031.69;;;35.11;28.39
6194;BME280;3130;41.564;23.280;2023-06-22T11:30:35;99034.28;;;34.89;28.16
6194;BME280;3130;41.564;23.280;2023-06-22T11:33:02;99037.59;;;34.96;27.91
6194;BME280;3130;41.564;23.280;2023-06-22T11:35:29;99026.69;;;34.98;27.59
6194;BME280;3130;41.564;23.280;2023-06-22T11:37:56;98999.13;;;34.92;27.69
6194;BME280;3130;41.564;23.280;2023-06-22T11:40:23;99025.31;;;35.12;28.00
6194;BME280;3130;41.564;23.280;2023-06-22T11:42:52;98994.53;;;34.88;27.89
6194;BME280;3130;41.564;23.280;2023-06-22T11:45:19;98993.84;;;34.97;28.44
6194;BME280;3130;41.564;23.280;2023-06-22T11:47:46;99007.78;;;35.16;29.69
6194;BME280;3130;41.564;23.280;2023-06-22T11:50:14;98997.50;;;35.08;30.32
6194;BME280;3130;41.564;23.280;2023-06-22T11:52:41;98996.00;;;34.95;30.90
6194;BME280;3130;41.564;23.280;2023-06-22T11:55:08;98977.06;;;34.97;29.55
6194;BME280;3130;41.564;23.280;2023-06-22T11:57:36;98999.56;;;35.06;29.02
6194;BME280;3130;41.564;23.280;2023-06-22T12:00:06;98978.53;;;34.88;29.22
6194;BME280;3130;41.564;23.280;2023-06-22T12:02:41;98993.44;;;35.05;29.04
6194;BME280;3130;41.564;23.280;2023-06-22T12:05:08;98994.44;;;35.16;28.88
6194;BME280;3130;41.564;23.280;2023-06-22T12:07:36;98993.25;;;34.90;29.87
6194;BME280;3130;41.564;23.280;2023-06-22T12:10:04;98973.63;;;34.80;29.78
6194;BME280;3130;41.564;23.280;2023-06-22T12:12:31;98982.53;;;35.07;29.46
6194;BME280;3130;41.564;23.280;2023-06-22T12:14:58;98988.59;;;35.18;28.75
6194;BME280;3130;41.564;23.280;2023-06-22T12:17:30;98950.47;;;35.02;29.14
6194;BME280;3130;41.564;23.280;2023-06-22T12:19:58;98981.16;;;35.20;29.26
6194;BME280;3130;41.564;23.280;2023-06-22T12:22:25;98963.16;;;35.11;29.23
6194;BME280;3130;41.564;23.280;2023-06-22T12:24:52;98974.22;;;35.19;29.65
6194;BME280;3130;41.564;23.280;2023-06-22T12:27:19;98957.88;;;35.16;29.49
6194;BME280;3130;41.564;23.280;2023-06-22T12:29:46;98974.78;;;35.21;28.98
6194;BME280;3130;41.564;23.280;2023-06-22T12:32:14;98963.22;;;35.16;28.94
6194;BME280;3130;41.564;23.280;2023-06-22T12:34:43;98967.75;;;35.16;28.65
6194;BME280;3130;41.564;23.280;2023-06-22T12:37:10;98954.22;;;35.06;28.17
6194;BME280;3130;41.564;23.280;2023-06-22T12:39:40;98948.09;;;34.84;28.25
6194;BME280;3130;41.564;23.280;2023-06-22T12:42:07;98959.81;;;34.50;28.29
6194;BME280;3130;41.564;23.280;2023-06-22T12:44:35;98952.06;;;34.32;29.19
6194;BME280;3130;41.564;23.280;2023-06-22T12:47:02;98870.34;;;34.05;29.34
6194;BME280;3130;41.564;23.280;2023-06-22T12:49:29;98935.50;;;34.63;29.34
6194;BME280;3130;41.564;23.280;2023-06-22T12:51:57;98914.09;;;34.58;29.02
6194;BME280;3130;41.564;23.280;2023-06-22T12:54:24;98927.72;;;34.78;28.72
6194;BME280;3130;41.564;23.280;2023-06-22T12:56:51;98935.72;;;34.94;28.46
6194;BME280;3130;41.564;23.280;2023-06-22T12:59:20;98914.78;;;34.86;28.51
6194;BME280;3130;41.564;23.280;2023-06-22T13:01:47;98926.75;;;34.84;28.85
6194;BME280;3130;41.564;23.280;2023-06-22T13:04:14;98929.06;;;34.97;29.22
6194;BME280;3130;41.564;23.280;2023-06-22T13:06:41;98923.66;;;34.92;28.99
6194;BME280;3130;41.564;23.280;2023-06-22T13:09:10;98918.13;;;35.15;28.90
6194;BME280;3130;41.564;23.280;2023-06-22T13:11:37;98918.09;;;35.36;28.93
6194;BME280;3130;41.564;23.280;2023-06-22T13:14:04;98921.41;;;35.21;28.42
6194;BME280;3130;41.564;23.280;2023-06-22T13:16:31;98832.06;;;34.60;29.05
6194;BME280;3130;41.564;23.280;2023-06-22T13:18:58;98926.31;;;35.08;29.24
6194;BME280;3130;41.564;23.280;2023-06-22T13:21:25;98921.53;;;35.10;29.19
6194;BME280;3130;41.564;23.280;2023-06-22T13:23:52;98905.44;;;35.05;29.37
6194;BME280;3130;41.564;23.280;2023-06-22T13:26:21;98912.16;;;35.08;29.46
6194;BME280;3130;41.564;23.280;2023-06-22T13:28:48;98920.16;;;35.08;29.80
6194;BME280;3130;41.564;23.280;2023-06-22T13:31:15;98888.31;;;34.80;29.71
6194;BME280;3130;41.564;23.280;2023-06-22T13:33:42;98912.00;;;34.76;30.61
6194;BME280;3130;41.564;23.280;2023-06-22T13:36:11;98913.38;;;34.62;30.36
6194;BME280;3130;41.564;23.280;2023-06-22T13:38:38;98915.00;;;34.47;30.55
6194;BME280;3130;41.564;23.280;2023-06-22T13:41:05;98915.47;;;34.44;30.81
6194;BME280;3130;41.564;23.280;2023-06-22T13:43:34;98846.38;;;33.88;30.97
6194;BME280;3130;41.564;23.280;2023-06-22T13:46:01;98909.19;;;34.17;31.08
6194;BME280;3130;41.564;23.280;2023-06-22T13:48:28;98907.63;;;34.05;31.24
6194;BME280;3130;41.564;23.280;2023-06-22T13:50:55;98918.88;;;33.79;31.58
6194;BME280;3130;41.564;23.280;2023-06-22T13:53:24;98855.31;;;33.38;32.36
6194;BME280;3130;41.564;23.280;2023-06-22T13:55:51;98916.94;;;33.74;32.03
6194;BME280;3130;41.564;23.280;2023-06-22T13:58:18;98915.00;;;33.70;32.53
6194;BME280;3130;41.564;23.280;2023-06-22T14:00:47;98914.91;;;33.65;32.08
6194;BME280;3130;41.564;23.280;2023-06-22T14:03:15;98915.81;;;33.59;32.43
6194;BME280;3130;41.564;23.280;2023-06-22T14:05:42;98884.69;;;33.31;32.69
6194;BME280;3130;41.564;23.280;2023-06-22T14:08:09;98912.53;;;33.40;33.21
6194;BME280;3130;41.564;23.280;2023-06-22T14:10:36;98909.66;;;33.30;32.79
6194;BME280;3130;41.564;23.280;2023-06-22T14:13:03;98888.78;;;33.22;33.42
6194;BME280;3130;41.564;23.280;2023-06-22T14:15:31;98910.81;;;33.34;33.45
6194;BME280;3130;41.564;23.280;2023-06-22T14:18:00;98921.22;;;33.36;34.32
6194;BME280;3130;41.564;23.280;2023-06-22T14:20:27;98872.50;;;33.07;34.46
6194;BME280;3130;41.564;23.280;2023-06-22T14:22:54;98901.16;;;33.17;34.80
6194;BME280;3130;41.564;23.280;2023-06-22T14:25:21;98909.94;;;33.17;35.53
6194;BME280;3130;41.564;23.280;2023-06-22T14:27:48;98931.47;;;33.16;36.26
6194;BME280;3130;41.564;23.280;2023-06-22T14:30:16;98932.47;;;32.23;45.67
6194;BME280;3130;41.564;23.280;2023-06-22T14:32:44;98943.13;;;31.11;59.87
6194;BME280;3130;41.564;23.280;2023-06-22T14:35:13;98966.97;;;29.82;67.21
6194;BME280;3130;41.564;23.280;2023-06-22T14:37:40;98939.84;;;28.93;71.76
6194;BME280;3130;41.564;23.280;2023-06-22T14:40:07;98965.06;;;28.31;76.70
6194;BME280;3130;41.564;23.280;2023-06-22T14:42:35;98975.75;;;27.50;78.42
6194;BME280;3130;41.564;23.280;2023-06-22T14:45:02;98954.69;;;26.82;84.45
6194;BME280;3130;41.564;23.280;2023-06-22T14:47:29;99003.84;;;26.48;86.98
6194;BME280;3130;41.564;23.280;2023-06-22T14:49:56;98959.53;;;25.53;89.83
6194;BME280;3130;41.564;23.280;2023-06-22T14:52:25;99027.41;;;25.50;93.45
6194;BME280;3130;41.564;23.280;2023-06-22T14:54:52;99062.00;;;25.25;97.21
6194;BME280;3130;41.564;23.280;2023-06-22T14:57:19;99058.13;;;24.98;97.58
6194;BME280;3130;41.564;23.280;2023-06-22T14:59:48;99048.06;;;23.98;96.43
6194;BME280;3130;41.564;23.280;2023-06-22T15:02:16;99034.72;;;23.31;98.47
6194;BME280;3130;41.564;23.280;2023-06-22T15:04:43;99056.00;;;22.32;100.00